sensor_id;sensor_type;location;lat;lon;timestamp;P1;durP1;ratioP1;P2;durP2;ratioP2
36355;SDS011;22384;54.302;18.596;2024-03-08T00:01:30;56.28;;;22.45;;
36355;SDS011;22384;54.302;18.596;2024-03-08T00:03:57;49.83;;;22.33;;
36355;SDS011;22384;54.302;18.596;2024-03-08T00:06:23;55.42;;;24.95;;
36355;SDS011;22384;54.302;18.596;2024-03-08T00:08:49;58.33;;;25.27;;
36355;SDS011;22384;54.302;18.596;2024-03-08T00:11:16;68.82;;;29.30;;
36355;SDS011;22384;54.302;18.596;2024-03-08T00:13:42;62.92;;;27.05;;
36355;SDS011;22384;54.302;18.596;2024-03-08T00:16:08;67.20;;;26.77;;
36355;SDS011;22384;54.302;18.596;2024-03-08T00:18:34;58.08;;;25.90;;
36355;SDS011;22384;54.302;18.596;2024-03-08T00:21:00;50.47;;;22.83;;
36355;SDS011;22384;54.302;18.596;2024-03-08T00:23:26;64.53;;;26.40;;
36355;SDS011;22384;54.302;18.596;2024-03-08T00:25:53;56.08;;;23.58;;
36355;SDS011;22384;54.302;18.596;2024-03-08T00:28:20;54.95;;;25.00;;
36355;SDS011;22384;54.302;18.596;2024-03-08T00:30:46;55.55;;;23.98;;
36355;SDS011;22384;54.302;18.596;2024-03-08T00:33:12;54.63;;;23.10;;
36355;SDS011;22384;54.302;18.596;2024-03-08T00:35:39;42.40;;;21.70;;
36355;SDS011;22384;54.302;18.596;2024-03-08T00:38:05;45.58;;;20.60;;
36355;SDS011;22384;54.302;18.596;2024-03-08T00:40:31;41.95;;;20.83;;
36355;SDS011;22384;54.302;18.596;2024-03-08T00:42:57;43.17;;;21.50;;
36355;SDS011;22384;54.302;18.596;2024-03-08T00:45:23;47.55;;;22.70;;
36355;SDS011;22384;54.302;18.596;2024-03-08T00:47:49;54.00;;;23.40;;
36355;SDS011;22384;54.302;18.596;2024-03-08T00:50:15;49.50;;;22.60;;
36355;SDS011;22384;54.302;18.596;2024-03-08T00:52:41;47.25;;;21.85;;
36355;SDS011;22384;54.302;18.596;2024-03-08T00:55:07;49.30;;;22.85;;
36355;SDS011;22384;54.302;18.596;2024-03-08T00:57:35;45.63;;;20.55;;
36355;SDS011;22384;54.302;18.596;2024-03-08T01:00:02;47.10;;;21.48;;
36355;SDS011;22384;54.302;18.596;2024-03-08T01:02:29;45.55;;;21.35;;
36355;SDS011;22384;54.302;18.596;2024-03-08T01:04:55;50.67;;;21.65;;
36355;SDS011;22384;54.302;18.596;2024-03-08T01:07:21;46.92;;;21.17;;
36355;SDS011;22384;54.302;18.596;2024-03-08T01:09:47;48.92;;;22.10;;
36355;SDS011;22384;54.302;18.596;2024-03-08T01:12:13;51.58;;;20.80;;
36355;SDS011;22384;54.302;18.596;2024-03-08T01:14:39;49.15;;;22.38;;
36355;SDS011;22384;54.302;18.596;2024-03-08T01:17:05;43.90;;;20.58;;
36355;SDS011;22384;54.302;18.596;2024-03-08T01:19:31;50.53;;;21.77;;
36355;SDS011;22384;54.302;18.596;2024-03-08T01:21:58;45.22;;;20.42;;
36355;SDS011;22384;54.302;18.596;2024-03-08T01:24:24;47.08;;;20.67;;
36355;SDS011;22384;54.302;18.596;2024-03-08T01:26:50;40.10;;;19.52;;
36355;SDS011;22384;54.302;18.596;2024-03-08T01:29:16;37.20;;;18.45;;
36355;SDS011;22384;54.302;18.596;2024-03-08T01:31:42;41.20;;;18.95;;
36355;SDS011;22384;54.302;18.596;2024-03-08T01:34:08;38.15;;;19.85;;
36355;SDS011;22384;54.302;18.596;2024-03-08T01:36:35;42.22;;;19.05;;
36355;SDS011;22384;54.302;18.596;2024-03-08T01:39:02;42.95;;;20.45;;
36355;SDS011;22384;54.302;18.596;2024-03-08T01:41:33;40.65;;;21.15;;
36355;SDS011;22384;54.302;18.596;2024-03-08T01:43:59;42.80;;;20.38;;
36355;SDS011;22384;54.302;18.596;2024-03-08T01:46:25;50.28;;;21.25;;
36355;SDS011;22384;54.302;18.596;2024-03-08T01:48:53;44.80;;;20.73;;
36355;SDS011;22384;54.302;18.596;2024-03-08T01:51:19;42.90;;;21.40;;
36355;SDS011;22384;54.302;18.596;2024-03-08T01:53:46;40.83;;;19.20;;
36355;SDS011;22384;54.302;18.596;2024-03-08T01:56:12;43.60;;;20.27;;
36355;SDS011;22384;54.302;18.596;2024-03-08T01:58:40;42.83;;;19.75;;
36355;SDS011;22384;54.302;18.596;2024-03-08T02:01:13;43.67;;;20.17;;
36355;SDS011;22384;54.302;18.596;2024-03-08T02:03:44;44.50;;;19.85;;
36355;SDS011;22384;54.302;18.596;2024-03-08T02:06:13;46.75;;;20.58;;
36355;SDS011;22384;54.302;18.596;2024-03-08T02:08:41;41.25;;;20.42;;
36355;SDS011;22384;54.302;18.596;2024-03-08T02:11:08;43.83;;;21.58;;
36355;SDS011;22384;54.302;18.596;2024-03-08T02:13:34;41.85;;;20.30;;
36355;SDS011;22384;54.302;18.596;2024-03-08T02:16:00;45.88;;;21.50;;
36355;SDS011;22384;54.302;18.596;2024-03-08T02:18:28;41.08;;;20.30;;
36355;SDS011;22384;54.302;18.596;2024-03-08T02:21:01;50.22;;;20.35;;
36355;SDS011;22384;54.302;18.596;2024-03-08T02:23:27;46.22;;;21.42;;
36355;SDS011;22384;54.302;18.596;2024-03-08T02:25:54;37.42;;;18.33;;
36355;SDS011;22384;54.302;18.596;2024-03-08T02:28:21;37.70;;;19.42;;
36355;SDS011;22384;54.302;18.596;2024-03-08T02:30:47;43.83;;;20.85;;
36355;SDS011;22384;54.302;18.596;2024-03-08T02:33:14;51.13;;;20.17;;
36355;SDS011;22384;54.302;18.596;2024-03-08T02:35:44;34.83;;;17.13;;
36355;SDS011;22384;54.302;18.596;2024-03-08T02:38:11;37.72;;;17.60;;
36355;SDS011;22384;54.302;18.596;2024-03-08T02:40:37;39.22;;;18.73;;
36355;SDS011;22384;54.302;18.596;2024-03-08T02:43:03;42.47;;;20.92;;
36355;SDS011;22384;54.302;18.596;2024-03-08T02:45:30;41.58;;;19.70;;
36355;SDS011;22384;54.302;18.596;2024-03-08T02:47:56;41.03;;;18.70;;
36355;SDS011;22384;54.302;18.596;2024-03-08T02:50:22;36.35;;;18.40;;
36355;SDS011;22384;54.302;18.596;2024-03-08T02:52:48;38.22;;;18.92;;
36355;SDS011;22384;54.302;18.596;2024-03-08T02:55:14;37.30;;;17.15;;
36355;SDS011;22384;54.302;18.596;2024-03-08T02:57:41;36.63;;;16.45;;
36355;SDS011;22384;54.302;18.596;2024-03-08T03:00:08;35.75;;;15.70;;
36355;SDS011;22384;54.302;18.596;2024-03-08T03:02:35;35.60;;;17.35;;
36355;SDS011;22384;54.302;18.596;2024-03-08T03:05:01;40.38;;;17.88;;
36355;SDS011;22384;54.302;18.596;2024-03-08T03:07:30;42.90;;;18.65;;
36355;SDS011;22384;54.302;18.596;2024-03-08T03:09:57;35.40;;;17.10;;
36355;SDS011;22384;54.302;18.596;2024-03-08T03:12:23;37.03;;;17.75;;
36355;SDS011;22384;54.302;18.596;2024-03-08T03:14:48;35.53;;;17.20;;
36355;SDS011;22384;54.302;18.596;2024-03-08T03:17:15;36.33;;;16.25;;
36355;SDS011;22384;54.302;18.596;2024-03-08T03:19:41;39.50;;;17.27;;
36355;SDS011;22384;54.302;18.596;2024-03-08T03:22:07;35.30;;;17.00;;
36355;SDS011;22384;54.302;18.596;2024-03-08T03:24:35;38.35;;;16.98;;
36355;SDS011;22384;54.302;18.596;2024-03-08T03:27:03;44.42;;;18.23;;
36355;SDS011;22384;54.302;18.596;2024-03-08T03:29:36;37.88;;;17.50;;
36355;SDS011;22384;54.302;18.596;2024-03-08T03:32:02;38.10;;;19.35;;
36355;SDS011;22384;54.302;18.596;2024-03-08T03:34:29;40.75;;;19.38;;
36355;SDS011;22384;54.302;18.596;2024-03-08T03:36:55;46.80;;;19.13;;
36355;SDS011;22384;54.302;18.596;2024-03-08T03:39:21;44.20;;;19.73;;
36355;SDS011;22384;54.302;18.596;2024-03-08T03:41:48;43.25;;;20.15;;
36355;SDS011;22384;54.302;18.596;2024-03-08T03:44:17;45.78;;;20.02;;
36355;SDS011;22384;54.302;18.596;2024-03-08T03:46:43;46.55;;;21.35;;
36355;SDS011;22384;54.302;18.596;2024-03-08T03:49:09;47.05;;;22.23;;
36355;SDS011;22384;54.302;18.596;2024-03-08T03:51:35;47.97;;;21.23;;
36355;SDS011;22384;54.302;18.596;2024-03-08T03:54:01;47.15;;;22.13;;
36355;SDS011;22384;54.302;18.596;2024-03-08T03:56:28;56.17;;;21.85;;
36355;SDS011;22384;54.302;18.596;2024-03-08T03:58:55;45.10;;;20.83;;
36355;SDS011;22384;54.302;18.596;2024-03-08T04:01:21;49.90;;;23.73;;
36355;SDS011;22384;54.302;18.596;2024-03-08T04:03:48;54.33;;;22.95;;
36355;SDS011;22384;54.302;18.596;2024-03-08T04:06:14;55.25;;;22.40;;
36355;SDS011;22384;54.302;18.596;2024-03-08T04:08:40;51.63;;;23.05;;
36355;SDS011;22384;54.302;18.596;2024-03-08T04:11:07;51.95;;;22.63;;
36355;SDS011;22384;54.302;18.596;2024-03-08T04:13:35;49.92;;;22.02;;
36355;SDS011;22384;54.302;18.596;2024-03-08T04:16:02;51.30;;;21.20;;
36355;SDS011;22384;54.302;18.596;2024-03-08T04:18:28;53.13;;;21.55;;
36355;SDS011;22384;54.302;18.596;2024-03-08T04:20:54;53.42;;;22.05;;
36355;SDS011;22384;54.302;18.596;2024-03-08T04:23:20;53.03;;;22.67;;
36355;SDS011;22384;54.302;18.596;2024-03-08T04:25:46;55.78;;;22.65;;
36355;SDS011;22384;54.302;18.596;2024-03-08T04:28:12;50.53;;;20.70;;
36355;SDS011;22384;54.302;18.596;2024-03-08T04:30:39;61.58;;;22.17;;
36355;SDS011;22384;54.302;18.596;2024-03-08T04:33:05;58.65;;;21.63;;
36355;SDS011;22384;54.302;18.596;2024-03-08T04:35:32;66.38;;;22.85;;
36355;SDS011;22384;54.302;18.596;2024-03-08T04:37:58;58.53;;;21.48;;
36355;SDS011;22384;54.302;18.596;2024-03-08T04:40:24;62.53;;;23.05;;
36355;SDS011;22384;54.302;18.596;2024-03-08T04:42:50;73.28;;;24.73;;
36355;SDS011;22384;54.302;18.596;2024-03-08T04:45:17;75.30;;;27.52;;
36355;SDS011;22384;54.302;18.596;2024-03-08T04:47:43;66.03;;;25.88;;
36355;SDS011;22384;54.302;18.596;2024-03-08T04:50:09;63.13;;;24.40;;
36355;SDS011;22384;54.302;18.596;2024-03-08T04:52:36;47.78;;;22.02;;
36355;SDS011;22384;54.302;18.596;2024-03-08T04:55:02;44.70;;;18.38;;
36355;SDS011;22384;54.302;18.596;2024-03-08T04:57:30;42.88;;;18.40;;
36355;SDS011;22384;54.302;18.596;2024-03-08T04:59:57;35.53;;;17.70;;
36355;SDS011;22384;54.302;18.596;2024-03-08T05:02:24;34.33;;;16.05;;
36355;SDS011;22384;54.302;18.596;2024-03-08T05:04:50;36.15;;;15.32;;
36355;SDS011;22384;54.302;18.596;2024-03-08T05:07:16;35.45;;;15.13;;
36355;SDS011;22384;54.302;18.596;2024-03-08T05:09:42;36.22;;;15.63;;
36355;SDS011;22384;54.302;18.596;2024-03-08T05:12:08;37.03;;;14.70;;
36355;SDS011;22384;54.302;18.596;2024-03-08T05:14:34;38.90;;;14.75;;
36355;SDS011;22384;54.302;18.596;2024-03-08T05:17:00;30.58;;;14.95;;
36355;SDS011;22384;54.302;18.596;2024-03-08T05:19:26;27.83;;;15.55;;
36355;SDS011;22384;54.302;18.596;2024-03-08T05:21:55;37.67;;;14.95;;
36355;SDS011;22384;54.302;18.596;2024-03-08T05:24:21;39.03;;;14.95;;
36355;SDS011;22384;54.302;18.596;2024-03-08T05:26:47;31.30;;;14.75;;
36355;SDS011;22384;54.302;18.596;2024-03-08T05:29:13;38.15;;;14.23;;
36355;SDS011;22384;54.302;18.596;2024-03-08T05:31:46;28.55;;;13.35;;
36355;SDS011;22384;54.302;18.596;2024-03-08T05:34:13;33.33;;;14.52;;
36355;SDS011;22384;54.302;18.596;2024-03-08T05:36:39;33.88;;;14.60;;
36355;SDS011;22384;54.302;18.596;2024-03-08T05:39:05;30.02;;;13.80;;
36355;SDS011;22384;54.302;18.596;2024-03-08T05:41:32;33.47;;;14.10;;
36355;SDS011;22384;54.302;18.596;2024-03-08T05:43:58;34.75;;;14.63;;
36355;SDS011;22384;54.302;18.596;2024-03-08T05:46:24;33.35;;;13.95;;
36355;SDS011;22384;54.302;18.596;2024-03-08T05:48:50;32.28;;;13.65;;
36355;SDS011;22384;54.302;18.596;2024-03-08T05:51:16;31.85;;;14.32;;
36355;SDS011;22384;54.302;18.596;2024-03-08T05:53:42;32.30;;;13.65;;
36355;SDS011;22384;54.302;18.596;2024-03-08T05:56:08;35.25;;;13.23;;
36355;SDS011;22384;54.302;18.596;2024-03-08T05:58:34;32.03;;;13.40;;
36355;SDS011;22384;54.302;18.596;2024-03-08T06:01:01;29.20;;;12.93;;
36355;SDS011;22384;54.302;18.596;2024-03-08T06:03:27;32.13;;;13.27;;
36355;SDS011;22384;54.302;18.596;2024-03-08T06:05:53;28.58;;;12.50;;
36355;SDS011;22384;54.302;18.596;2024-03-08T06:08:19;29.10;;;13.50;;
36355;SDS011;22384;54.302;18.596;2024-03-08T06:10:45;28.92;;;11.82;;
36355;SDS011;22384;54.302;18.596;2024-03-08T06:13:14;28.35;;;12.60;;
36355;SDS011;22384;54.302;18.596;2024-03-08T06:32:10;41.45;;;15.10;;
36355;SDS011;22384;54.302;18.596;2024-03-08T06:34:36;42.35;;;13.57;;
36355;SDS011;22384;54.302;18.596;2024-03-08T06:37:02;40.28;;;15.65;;
36355;SDS011;22384;54.302;18.596;2024-03-08T06:39:28;43.53;;;15.38;;
36355;SDS011;22384;54.302;18.596;2024-03-08T06:41:56;38.38;;;15.68;;
36355;SDS011;22384;54.302;18.596;2024-03-08T06:44:22;47.63;;;16.42;;
36355;SDS011;22384;54.302;18.596;2024-03-08T06:46:48;48.25;;;16.23;;
36355;SDS011;22384;54.302;18.596;2024-03-08T06:49:14;36.78;;;15.50;;
36355;SDS011;22384;54.302;18.596;2024-03-08T06:51:41;39.75;;;16.27;;
36355;SDS011;22384;54.302;18.596;2024-03-08T06:54:07;41.50;;;16.30;;
36355;SDS011;22384;54.302;18.596;2024-03-08T06:56:34;36.08;;;15.80;;
36355;SDS011;22384;54.302;18.596;2024-03-08T06:59:00;37.35;;;15.32;;
36355;SDS011;22384;54.302;18.596;2024-03-08T07:01:28;35.33;;;15.25;;
36355;SDS011;22384;54.302;18.596;2024-03-08T07:03:57;39.63;;;15.73;;
36355;SDS011;22384;54.302;18.596;2024-03-08T07:06:23;34.83;;;15.10;;
36355;SDS011;22384;54.302;18.596;2024-03-08T07:08:50;40.97;;;16.52;;
36355;SDS011;22384;54.302;18.596;2024-03-08T07:17:26;34.13;;;15.70;;
36355;SDS011;22384;54.302;18.596;2024-03-08T07:19:52;40.75;;;16.35;;
36355;SDS011;22384;54.302;18.596;2024-03-08T07:22:19;37.35;;;17.25;;
36355;SDS011;22384;54.302;18.596;2024-03-08T07:24:45;33.35;;;16.38;;
36355;SDS011;22384;54.302;18.596;2024-03-08T07:27:29;34.55;;;17.00;;
36355;SDS011;22384;54.302;18.596;2024-03-08T07:29:55;41.60;;;19.05;;
36355;SDS011;22384;54.302;18.596;2024-03-08T07:32:23;38.38;;;17.50;;
36355;SDS011;22384;54.302;18.596;2024-03-08T07:34:50;36.53;;;17.75;;
36355;SDS011;22384;54.302;18.596;2024-03-08T07:37:17;37.63;;;17.88;;
36355;SDS011;22384;54.302;18.596;2024-03-08T07:39:44;40.28;;;17.90;;
36355;SDS011;22384;54.302;18.596;2024-03-08T07:42:10;37.83;;;17.63;;
36355;SDS011;22384;54.302;18.596;2024-03-08T07:44:36;29.92;;;16.38;;
36355;SDS011;22384;54.302;18.596;2024-03-08T07:47:02;33.08;;;17.20;;
36355;SDS011;22384;54.302;18.596;2024-03-08T07:49:29;31.42;;;15.65;;
36355;SDS011;22384;54.302;18.596;2024-03-08T07:51:55;35.20;;;17.15;;
36355;SDS011;22384;54.302;18.596;2024-03-08T07:54:21;33.05;;;15.25;;
36355;SDS011;22384;54.302;18.596;2024-03-08T07:56:47;32.30;;;14.88;;
36355;SDS011;22384;54.302;18.596;2024-03-08T07:59:13;36.28;;;15.35;;
36355;SDS011;22384;54.302;18.596;2024-03-08T08:01:40;26.50;;;13.98;;
36355;SDS011;22384;54.302;18.596;2024-03-08T08:04:06;30.30;;;14.23;;
36355;SDS011;22384;54.302;18.596;2024-03-08T08:06:34;31.08;;;13.75;;
36355;SDS011;22384;54.302;18.596;2024-03-08T08:09:02;24.02;;;13.07;;
36355;SDS011;22384;54.302;18.596;2024-03-08T08:11:28;29.42;;;14.48;;
36355;SDS011;22384;54.302;18.596;2024-03-08T08:13:54;26.13;;;14.00;;
36355;SDS011;22384;54.302;18.596;2024-03-08T08:16:22;24.90;;;14.43;;
36355;SDS011;22384;54.302;18.596;2024-03-08T08:18:49;26.85;;;12.85;;
36355;SDS011;22384;54.302;18.596;2024-03-08T08:21:15;28.27;;;13.60;;
36355;SDS011;22384;54.302;18.596;2024-03-08T08:23:43;29.42;;;12.90;;
36355;SDS011;22384;54.302;18.596;2024-03-08T08:26:10;24.15;;;13.57;;
36355;SDS011;22384;54.302;18.596;2024-03-08T08:28:37;33.45;;;14.80;;
36355;SDS011;22384;54.302;18.596;2024-03-08T08:31:03;25.23;;;13.27;;
36355;SDS011;22384;54.302;18.596;2024-03-08T08:33:29;35.92;;;15.60;;
36355;SDS011;22384;54.302;18.596;2024-03-08T08:35:55;32.15;;;15.63;;
36355;SDS011;22384;54.302;18.596;2024-03-08T08:38:21;37.88;;;14.90;;
36355;SDS011;22384;54.302;18.596;2024-03-08T08:40:48;33.58;;;15.32;;
36355;SDS011;22384;54.302;18.596;2024-03-08T08:43:15;28.70;;;16.00;;
36355;SDS011;22384;54.302;18.596;2024-03-08T08:45:42;36.28;;;16.90;;
36355;SDS011;22384;54.302;18.596;2024-03-08T08:48:08;35.28;;;16.83;;
36355;SDS011;22384;54.302;18.596;2024-03-08T08:50:35;30.50;;;16.25;;
36355;SDS011;22384;54.302;18.596;2024-03-08T08:53:02;29.35;;;15.85;;
36355;SDS011;22384;54.302;18.596;2024-03-08T08:55:29;27.60;;;14.85;;
36355;SDS011;22384;54.302;18.596;2024-03-08T08:57:56;31.42;;;15.63;;
36355;SDS011;22384;54.302;18.596;2024-03-08T09:00:22;27.88;;;14.07;;
36355;SDS011;22384;54.302;18.596;2024-03-08T09:02:52;27.30;;;15.13;;
36355;SDS011;22384;54.302;18.596;2024-03-08T09:05:20;27.02;;;12.93;;
36355;SDS011;22384;54.302;18.596;2024-03-08T09:07:49;27.40;;;13.85;;
36355;SDS011;22384;54.302;18.596;2024-03-08T09:10:15;28.02;;;13.80;;
36355;SDS011;22384;54.302;18.596;2024-03-08T09:12:41;22.60;;;12.90;;
36355;SDS011;22384;54.302;18.596;2024-03-08T09:15:07;29.70;;;13.30;;
36355;SDS011;22384;54.302;18.596;2024-03-08T09:17:34;30.40;;;14.32;;
36355;SDS011;22384;54.302;18.596;2024-03-08T09:20:00;27.52;;;14.63;;
36355;SDS011;22384;54.302;18.596;2024-03-08T09:22:29;27.17;;;14.00;;
36355;SDS011;22384;54.302;18.596;2024-03-08T09:24:55;28.23;;;13.98;;
36355;SDS011;22384;54.302;18.596;2024-03-08T09:27:22;24.38;;;13.00;;
36355;SDS011;22384;54.302;18.596;2024-03-08T09:29:49;27.13;;;13.60;;
36355;SDS011;22384;54.302;18.596;2024-03-08T09:32:15;30.35;;;14.00;;
36355;SDS011;22384;54.302;18.596;2024-03-08T09:34:41;29.48;;;13.65;;
36355;SDS011;22384;54.302;18.596;2024-03-08T09:37:08;24.50;;;12.40;;
36355;SDS011;22384;54.302;18.596;2024-03-08T09:39:34;22.00;;;11.32;;
36355;SDS011;22384;54.302;18.596;2024-03-08T09:42:00;28.98;;;13.52;;
36355;SDS011;22384;54.302;18.596;2024-03-08T09:44:26;31.35;;;12.93;;
36355;SDS011;22384;54.302;18.596;2024-03-08T09:46:54;27.75;;;12.82;;
36355;SDS011;22384;54.302;18.596;2024-03-08T09:49:20;25.88;;;13.18;;
36355;SDS011;22384;54.302;18.596;2024-03-08T09:51:46;20.80;;;10.20;;
36355;SDS011;22384;54.302;18.596;2024-03-08T09:54:13;28.45;;;11.63;;
36355;SDS011;22384;54.302;18.596;2024-03-08T09:56:41;22.73;;;11.13;;
36355;SDS011;22384;54.302;18.596;2024-03-08T09:59:11;21.70;;;9.07;;
36355;SDS011;22384;54.302;18.596;2024-03-08T10:01:52;18.60;;;8.43;;
36355;SDS011;22384;54.302;18.596;2024-03-08T10:04:21;18.13;;;8.57;;
36355;SDS011;22384;54.302;18.596;2024-03-08T10:06:48;21.48;;;8.88;;
36355;SDS011;22384;54.302;18.596;2024-03-08T10:09:14;19.70;;;9.70;;
36355;SDS011;22384;54.302;18.596;2024-03-08T10:11:41;19.27;;;8.52;;
36355;SDS011;22384;54.302;18.596;2024-03-08T10:14:10;21.35;;;10.65;;
36355;SDS011;22384;54.302;18.596;2024-03-08T10:16:37;21.48;;;9.82;;
36355;SDS011;22384;54.302;18.596;2024-03-08T10:19:04;17.13;;;7.53;;
36355;SDS011;22384;54.302;18.596;2024-03-08T10:21:31;22.75;;;8.50;;
36355;SDS011;22384;54.302;18.596;2024-03-08T10:24:02;15.40;;;8.77;;
36355;SDS011;22384;54.302;18.596;2024-03-08T10:26:28;18.75;;;9.40;;
36355;SDS011;22384;54.302;18.596;2024-03-08T10:28:54;20.60;;;9.10;;
36355;SDS011;22384;54.302;18.596;2024-03-08T10:31:20;18.00;;;8.50;;
36355;SDS011;22384;54.302;18.596;2024-03-08T10:33:46;18.77;;;7.40;;
36355;SDS011;22384;54.302;18.596;2024-03-08T10:36:13;16.27;;;7.30;;
36355;SDS011;22384;54.302;18.596;2024-03-08T10:38:40;16.77;;;8.02;;
36355;SDS011;22384;54.302;18.596;2024-03-08T10:41:08;19.65;;;7.75;;
36355;SDS011;22384;54.302;18.596;2024-03-08T10:46:20;19.08;;;7.97;;
36355;SDS011;22384;54.302;18.596;2024-03-08T10:48:48;15.50;;;7.78;;
36355;SDS011;22384;54.302;18.596;2024-03-08T10:51:15;16.80;;;6.68;;
36355;SDS011;22384;54.302;18.596;2024-03-08T10:53:41;14.25;;;7.32;;
36355;SDS011;22384;54.302;18.596;2024-03-08T10:56:08;19.02;;;7.22;;
36355;SDS011;22384;54.302;18.596;2024-03-08T10:58:35;13.35;;;6.28;;
36355;SDS011;22384;54.302;18.596;2024-03-08T11:01:03;17.75;;;7.10;;
36355;SDS011;22384;54.302;18.596;2024-03-08T11:03:43;14.43;;;6.80;;
36355;SDS011;22384;54.302;18.596;2024-03-08T11:06:22;20.38;;;7.32;;
36355;SDS011;22384;54.302;18.596;2024-03-08T11:08:48;9.70;;;5.70;;
36355;SDS011;22384;54.302;18.596;2024-03-08T11:11:38;14.45;;;6.55;;
36355;SDS011;22384;54.302;18.596;2024-03-08T11:14:08;15.80;;;8.02;;
36355;SDS011;22384;54.302;18.596;2024-03-08T11:16:53;18.98;;;6.47;;
36355;SDS011;22384;54.302;18.596;2024-03-08T11:21:45;19.55;;;7.15;;
36355;SDS011;22384;54.302;18.596;2024-03-08T11:24:12;14.57;;;6.65;;
36355;SDS011;22384;54.302;18.596;2024-03-08T11:26:39;13.10;;;6.45;;
36355;SDS011;22384;54.302;18.596;2024-03-08T11:31:50;19.60;;;7.32;;
36355;SDS011;22384;54.302;18.596;2024-03-08T11:34:16;17.02;;;7.50;;
36355;SDS011;22384;54.302;18.596;2024-03-08T11:36:44;18.17;;;7.85;;
36355;SDS011;22384;54.302;18.596;2024-03-08T11:39:13;19.73;;;8.23;;
36355;SDS011;22384;54.302;18.596;2024-03-08T11:41:40;17.55;;;7.65;;
36355;SDS011;22384;54.302;18.596;2024-03-08T11:44:10;15.80;;;8.30;;
36355;SDS011;22384;54.302;18.596;2024-03-08T11:46:41;14.60;;;7.55;;
36355;SDS011;22384;54.302;18.596;2024-03-08T11:49:11;21.25;;;7.55;;
36355;SDS011;22384;54.302;18.596;2024-03-08T11:51:37;19.20;;;8.25;;
36355;SDS011;22384;54.302;18.596;2024-03-08T11:54:03;17.63;;;8.38;;
36355;SDS011;22384;54.302;18.596;2024-03-08T11:56:31;19.15;;;8.55;;
36355;SDS011;22384;54.302;18.596;2024-03-08T11:58:57;23.35;;;8.80;;
36355;SDS011;22384;54.302;18.596;2024-03-08T12:01:24;17.15;;;8.18;;
36355;SDS011;22384;54.302;18.596;2024-03-08T12:03:54;22.27;;;9.13;;
36355;SDS011;22384;54.302;18.596;2024-03-08T12:06:20;15.43;;;7.80;;
36355;SDS011;22384;54.302;18.596;2024-03-08T12:08:46;17.92;;;8.43;;
36355;SDS011;22384;54.302;18.596;2024-03-08T12:11:19;22.65;;;8.93;;
36355;SDS011;22384;54.302;18.596;2024-03-08T12:13:48;18.15;;;7.93;;
36355;SDS011;22384;54.302;18.596;2024-03-08T12:16:16;18.92;;;8.07;;
36355;SDS011;22384;54.302;18.596;2024-03-08T12:18:50;21.60;;;7.80;;
36355;SDS011;22384;54.302;18.596;2024-03-08T12:21:17;21.42;;;7.90;;
36355;SDS011;22384;54.302;18.596;2024-03-08T12:23:45;22.50;;;8.55;;
36355;SDS011;22384;54.302;18.596;2024-03-08T12:26:23;20.63;;;7.20;;
36355;SDS011;22384;54.302;18.596;2024-03-08T12:28:51;17.80;;;6.93;;
36355;SDS011;22384;54.302;18.596;2024-03-08T12:31:17;14.25;;;6.97;;
36355;SDS011;22384;54.302;18.596;2024-03-08T12:33:49;17.77;;;7.15;;
36355;SDS011;22384;54.302;18.596;2024-03-08T12:36:15;17.65;;;6.38;;
36355;SDS011;22384;54.302;18.596;2024-03-08T12:38:48;16.98;;;7.30;;
36355;SDS011;22384;54.302;18.596;2024-03-08T12:41:18;18.00;;;7.85;;
36355;SDS011;22384;54.302;18.596;2024-03-08T12:43:44;16.90;;;8.25;;
36355;SDS011;22384;54.302;18.596;2024-03-08T12:46:20;17.77;;;7.53;;
36355;SDS011;22384;54.302;18.596;2024-03-08T12:48:57;17.92;;;7.60;;
36355;SDS011;22384;54.302;18.596;2024-03-08T15:52:45;19.63;;;9.07;;
36355;SDS011;22384;54.302;18.596;2024-03-08T16:01:27;19.70;;;10.65;;
36355;SDS011;22384;54.302;18.596;2024-03-08T17:26:11;26.15;;;12.82;;
36355;SDS011;22384;54.302;18.596;2024-03-08T17:39:44;22.27;;;11.32;;
36355;SDS011;22384;54.302;18.596;2024-03-08T18:42:57;9.85;;;6.60;;
36355;SDS011;22384;54.302;18.596;2024-03-08T20:04:45;13.25;;;7.80;;
36355;SDS011;22384;54.302;18.596;2024-03-08T20:12:51;19.98;;;8.57;;
36355;SDS011;22384;54.302;18.596;2024-03-08T20:15:26;17.08;;;8.80;;
36355;SDS011;22384;54.302;18.596;2024-03-08T20:24:03;24.73;;;10.23;;
36355;SDS011;22384;54.302;18.596;2024-03-08T20:26:29;22.17;;;10.18;;
36355;SDS011;22384;54.302;18.596;2024-03-08T20:28:55;18.50;;;10.25;;
36355;SDS011;22384;54.302;18.596;2024-03-08T20:31:23;22.20;;;10.57;;
36355;SDS011;22384;54.302;18.596;2024-03-08T20:33:49;19.65;;;8.60;;
36355;SDS011;22384;54.302;18.596;2024-03-08T20:36:16;14.70;;;7.38;;
36355;SDS011;22384;54.302;18.596;2024-03-08T20:38:42;22.33;;;7.00;;
36355;SDS011;22384;54.302;18.596;2024-03-08T20:41:09;8.52;;;5.45;;
36355;SDS011;22384;54.302;18.596;2024-03-08T20:43:36;11.65;;;5.95;;
36355;SDS011;22384;54.302;18.596;2024-03-08T20:46:02;12.70;;;5.20;;
36355;SDS011;22384;54.302;18.596;2024-03-08T20:48:32;11.02;;;5.22;;
36355;SDS011;22384;54.302;18.596;2024-03-08T20:51:01;9.77;;;5.43;;
36355;SDS011;22384;54.302;18.596;2024-03-08T20:53:29;11.20;;;4.80;;
36355;SDS011;22384;54.302;18.596;2024-03-08T20:55:56;7.20;;;4.47;;
36355;SDS011;22384;54.302;18.596;2024-03-08T20:58:22;10.48;;;4.45;;
36355;SDS011;22384;54.302;18.596;2024-03-08T21:00:49;10.57;;;4.72;;
36355;SDS011;22384;54.302;18.596;2024-03-08T21:03:24;12.70;;;4.28;;
36355;SDS011;22384;54.302;18.596;2024-03-08T21:05:52;7.53;;;5.40;;
36355;SDS011;22384;54.302;18.596;2024-03-08T21:08:19;9.30;;;5.53;;
36355;SDS011;22384;54.302;18.596;2024-03-08T21:10:52;9.87;;;5.33;;
36355;SDS011;22384;54.302;18.596;2024-03-08T21:13:18;13.80;;;6.50;;
36355;SDS011;22384;54.302;18.596;2024-03-08T21:15:49;11.85;;;6.47;;
36355;SDS011;22384;54.302;18.596;2024-03-08T21:18:15;12.45;;;6.75;;
36355;SDS011;22384;54.302;18.596;2024-03-08T21:20:42;12.77;;;6.90;;
36355;SDS011;22384;54.302;18.596;2024-03-08T21:23:08;13.20;;;6.68;;
36355;SDS011;22384;54.302;18.596;2024-03-08T21:25:40;11.93;;;6.55;;
36355;SDS011;22384;54.302;18.596;2024-03-08T21:28:08;9.57;;;5.88;;
36355;SDS011;22384;54.302;18.596;2024-03-08T21:30:36;16.42;;;6.03;;
36355;SDS011;22384;54.302;18.596;2024-03-08T21:33:03;12.02;;;7.32;;
36355;SDS011;22384;54.302;18.596;2024-03-08T21:35:35;10.10;;;6.20;;
36355;SDS011;22384;54.302;18.596;2024-03-08T21:38:02;10.65;;;5.90;;
36355;SDS011;22384;54.302;18.596;2024-03-08T21:40:28;11.13;;;5.97;;
36355;SDS011;22384;54.302;18.596;2024-03-08T21:42:56;9.70;;;5.00;;
36355;SDS011;22384;54.302;18.596;2024-03-08T21:45:28;11.88;;;4.80;;
36355;SDS011;22384;54.302;18.596;2024-03-08T21:48:00;10.25;;;4.55;;
36355;SDS011;22384;54.302;18.596;2024-03-08T21:50:46;6.43;;;3.83;;
36355;SDS011;22384;54.302;18.596;2024-03-08T21:53:12;13.18;;;4.70;;
36355;SDS011;22384;54.302;18.596;2024-03-08T21:55:38;7.90;;;3.83;;
36355;SDS011;22384;54.302;18.596;2024-03-08T21:58:04;9.45;;;4.88;;